sensor_id;sensor_type;location;lat;lon;timestamp;P1;durP1;ratioP1;P2;durP2;ratioP2
43297;SDS011;28892;55.640;37.532;2022-07-23T00:00:33;4.53;;;3.42;;
43297;SDS011;28892;55.640;37.532;2022-07-23T00:02:59;6.85;;;3.40;;
43297;SDS011;28892;55.640;37.532;2022-07-23T00:05:24;5.63;;;3.22;;
43297;SDS011;28892;55.640;37.532;2022-07-23T00:07:50;4.60;;;3.17;;
43297;SDS011;28892;55.640;37.532;2022-07-23T00:10:16;5.35;;;3.30;;
43297;SDS011;28892;55.640;37.532;2022-07-23T00:12:42;3.92;;;3.17;;
43297;SDS011;28892;55.640;37.532;2022-07-23T00:15:08;4.00;;;2.85;;
43297;SDS011;28892;55.640;37.532;2022-07-23T00:17:34;9.65;;;3.38;;
43297;SDS011;28892;55.640;37.532;2022-07-23T00:20:00;7.30;;;3.60;;
43297;SDS011;28892;55.640;37.532;2022-07-23T00:22:26;4.35;;;3.20;;
43297;SDS011;28892;55.640;37.532;2022-07-23T00:24:53;5.47;;;3.15;;
43297;SDS011;28892;55.640;37.532;2022-07-23T00:27:18;3.53;;;3.05;;
43297;SDS011;28892;55.640;37.532;2022-07-23T00:29:44;6.70;;;3.40;;
43297;SDS011;28892;55.640;37.532;2022-07-23T00:32:10;4.07;;;3.17;;
43297;SDS011;28892;55.640;37.532;2022-07-23T00:34:35;5.32;;;3.00;;
43297;SDS011;28892;55.640;37.532;2022-07-23T00:37:01;6.15;;;3.42;;
43297;SDS011;28892;55.640;37.532;2022-07-23T00:39:27;4.90;;;3.38;;
43297;SDS011;28892;55.640;37.532;2022-07-23T00:41:52;5.43;;;3.60;;
43297;SDS011;28892;55.640;37.532;2022-07-23T00:44:19;3.72;;;3.13;;
43297;SDS011;28892;55.640;37.532;2022-07-23T00:46:48;4.00;;;3.38;;
43297;SDS011;28892;55.640;37.532;2022-07-23T00:49:22;5.03;;;3.03;;
43297;SDS011;28892;55.640;37.532;2022-07-23T00:51:50;3.70;;;3.10;;
43297;SDS011;28892;55.640;37.532;2022-07-23T00:54:16;3.90;;;3.50;;
43297;SDS011;28892;55.640;37.532;2022-07-23T00:56:43;4.63;;;3.50;;
43297;SDS011;28892;55.640;37.532;2022-07-23T00:59:10;6.18;;;3.40;;
43297;SDS011;28892;55.640;37.532;2022-07-23T01:01:36;6.07;;;3.42;;
43297;SDS011;28892;55.640;37.532;2022-07-23T01:04:02;4.03;;;3.38;;
43297;SDS011;28892;55.640;37.532;2022-07-23T01:06:28;4.40;;;3.10;;
43297;SDS011;28892;55.640;37.532;2022-07-23T01:08:54;7.35;;;3.50;;
43297;SDS011;28892;55.640;37.532;2022-07-23T01:11:21;6.07;;;3.47;;
43297;SDS011;28892;55.640;37.532;2022-07-23T01:13:49;5.07;;;3.58;;
43297;SDS011;28892;55.640;37.532;2022-07-23T01:16:15;4.60;;;3.25;;
43297;SDS011;28892;55.640;37.532;2022-07-23T01:18:40;7.13;;;3.30;;
43297;SDS011;28892;55.640;37.532;2022-07-23T01:21:06;4.75;;;3.58;;
43297;SDS011;28892;55.640;37.532;2022-07-23T01:23:34;6.10;;;3.60;;
43297;SDS011;28892;55.640;37.532;2022-07-23T01:26:00;4.10;;;3.55;;
43297;SDS011;28892;55.640;37.532;2022-07-23T01:28:27;4.53;;;3.20;;
43297;SDS011;28892;55.640;37.532;2022-07-23T01:30:55;4.05;;;3.50;;
43297;SDS011;28892;55.640;37.532;2022-07-23T01:33:20;6.90;;;3.30;;
43297;SDS011;28892;55.640;37.532;2022-07-23T01:35:46;5.63;;;3.95;;
43297;SDS011;28892;55.640;37.532;2022-07-23T01:38:17;5.72;;;3.88;;
43297;SDS011;28892;55.640;37.532;2022-07-23T01:40:44;9.15;;;3.67;;
43297;SDS011;28892;55.640;37.532;2022-07-23T01:43:10;4.60;;;3.30;;
43297;SDS011;28892;55.640;37.532;2022-07-23T01:45:36;6.78;;;3.45;;
43297;SDS011;28892;55.640;37.532;2022-07-23T01:48:02;5.70;;;3.90;;
43297;SDS011;28892;55.640;37.532;2022-07-23T01:50:29;4.43;;;3.58;;
43297;SDS011;28892;55.640;37.532;2022-07-23T01:53:08;8.35;;;3.83;;
43297;SDS011;28892;55.640;37.532;2022-07-23T01:55:35;5.93;;;3.50;;
43297;SDS011;28892;55.640;37.532;2022-07-23T01:58:02;5.80;;;3.47;;
43297;SDS011;28892;55.640;37.532;2022-07-23T02:00:28;6.63;;;3.58;;
43297;SDS011;28892;55.640;37.532;2022-07-23T02:02:54;5.35;;;3.88;;
43297;SDS011;28892;55.640;37.532;2022-07-23T02:05:21;7.38;;;3.88;;
43297;SDS011;28892;55.640;37.532;2022-07-23T02:07:47;5.68;;;3.85;;
43297;SDS011;28892;55.640;37.532;2022-07-23T02:10:12;6.07;;;3.95;;
43297;SDS011;28892;55.640;37.532;2022-07-23T02:12:38;4.80;;;3.80;;
43297;SDS011;28892;55.640;37.532;2022-07-23T02:15:24;12.60;;;3.97;;
43297;SDS011;28892;55.640;37.532;2022-07-23T02:17:50;5.47;;;4.05;;
43297;SDS011;28892;55.640;37.532;2022-07-23T02:20:15;6.10;;;3.75;;
43297;SDS011;28892;55.640;37.532;2022-07-23T02:22:43;4.80;;;3.88;;
43297;SDS011;28892;55.640;37.532;2022-07-23T02:25:09;5.43;;;4.28;;
43297;SDS011;28892;55.640;37.532;2022-07-23T02:27:35;5.32;;;4.13;;
43297;SDS011;28892;55.640;37.532;2022-07-23T02:30:05;6.32;;;4.07;;
43297;SDS011;28892;55.640;37.532;2022-07-23T02:32:33;7.60;;;3.83;;
43297;SDS011;28892;55.640;37.532;2022-07-23T02:34:59;4.90;;;4.07;;
43297;SDS011;28892;55.640;37.532;2022-07-23T02:37:25;7.07;;;4.07;;
43297;SDS011;28892;55.640;37.532;2022-07-23T02:39:51;7.20;;;4.25;;
43297;SDS011;28892;55.640;37.532;2022-07-23T02:42:17;6.50;;;4.70;;
43297;SDS011;28892;55.640;37.532;2022-07-23T02:44:43;6.05;;;4.45;;
43297;SDS011;28892;55.640;37.532;2022-07-23T02:47:09;4.95;;;3.95;;
43297;SDS011;28892;55.640;37.532;2022-07-23T02:49:34;8.18;;;4.57;;
43297;SDS011;28892;55.640;37.532;2022-07-23T02:52:03;7.13;;;4.78;;
43297;SDS011;28892;55.640;37.532;2022-07-23T02:54:29;5.70;;;4.57;;
43297;SDS011;28892;55.640;37.532;2022-07-23T02:56:55;5.93;;;4.30;;
43297;SDS011;28892;55.640;37.532;2022-07-23T02:59:20;5.82;;;4.53;;
43297;SDS011;28892;55.640;37.532;2022-07-23T03:01:47;6.40;;;4.18;;
43297;SDS011;28892;55.640;37.532;2022-07-23T03:04:13;5.45;;;4.53;;
43297;SDS011;28892;55.640;37.532;2022-07-23T03:06:41;6.78;;;4.57;;
43297;SDS011;28892;55.640;37.532;2022-07-23T03:09:07;6.25;;;4.97;;
43297;SDS011;28892;55.640;37.532;2022-07-23T03:11:33;6.93;;;4.85;;
43297;SDS011;28892;55.640;37.532;2022-07-23T03:13:58;6.80;;;4.60;;
43297;SDS011;28892;55.640;37.532;2022-07-23T03:16:24;6.20;;;4.63;;
43297;SDS011;28892;55.640;37.532;2022-07-23T03:18:56;6.85;;;5.03;;
43297;SDS011;28892;55.640;37.532;2022-07-23T03:21:21;6.15;;;4.90;;
43297;SDS011;28892;55.640;37.532;2022-07-23T03:23:47;7.47;;;4.82;;
43297;SDS011;28892;55.640;37.532;2022-07-23T03:26:12;9.02;;;5.20;;
43297;SDS011;28892;55.640;37.532;2022-07-23T03:28:38;6.90;;;4.97;;
43297;SDS011;28892;55.640;37.532;2022-07-23T03:31:04;6.43;;;4.85;;
43297;SDS011;28892;55.640;37.532;2022-07-23T03:33:30;6.85;;;5.35;;
43297;SDS011;28892;55.640;37.532;2022-07-23T03:35:56;6.43;;;4.75;;
43297;SDS011;28892;55.640;37.532;2022-07-23T03:38:25;6.72;;;5.43;;
43297;SDS011;28892;55.640;37.532;2022-07-23T03:40:52;7.57;;;5.13;;
43297;SDS011;28892;55.640;37.532;2022-07-23T03:43:17;6.32;;;5.13;;
43297;SDS011;28892;55.640;37.532;2022-07-23T03:45:44;9.10;;;5.18;;
43297;SDS011;28892;55.640;37.532;2022-07-23T03:48:10;5.95;;;5.20;;
43297;SDS011;28892;55.640;37.532;2022-07-23T03:50:35;10.57;;;5.80;;
43297;SDS011;28892;55.640;37.532;2022-07-23T03:53:02;7.43;;;4.75;;
43297;SDS011;28892;55.640;37.532;2022-07-23T03:55:31;8.13;;;5.93;;
43297;SDS011;28892;55.640;37.532;2022-07-23T03:57:57;5.97;;;5.38;;
43297;SDS011;28892;55.640;37.532;2022-07-23T04:00:23;6.75;;;4.90;;
43297;SDS011;28892;55.640;37.532;2022-07-23T04:02:50;9.93;;;5.90;;
43297;SDS011;28892;55.640;37.532;2022-07-23T04:05:17;10.40;;;5.28;;
43297;SDS011;28892;55.640;37.532;2022-07-23T04:07:45;6.72;;;5.18;;
43297;SDS011;28892;55.640;37.532;2022-07-23T04:10:14;6.57;;;5.32;;
43297;SDS011;28892;55.640;37.532;2022-07-23T04:12:40;5.05;;;4.55;;
43297;SDS011;28892;55.640;37.532;2022-07-23T04:15:07;6.45;;;5.70;;
43297;SDS011;28892;55.640;37.532;2022-07-23T04:17:33;8.70;;;5.70;;
43297;SDS011;28892;55.640;37.532;2022-07-23T04:19:59;9.57;;;5.43;;
43297;SDS011;28892;55.640;37.532;2022-07-23T04:22:30;6.13;;;4.97;;
43297;SDS011;28892;55.640;37.532;2022-07-23T04:24:55;7.15;;;5.18;;
43297;SDS011;28892;55.640;37.532;2022-07-23T04:27:21;10.93;;;9.82;;
43297;SDS011;28892;55.640;37.532;2022-07-23T04:29:47;7.70;;;6.18;;
43297;SDS011;28892;55.640;37.532;2022-07-23T04:32:13;10.75;;;5.43;;
43297;SDS011;28892;55.640;37.532;2022-07-23T04:34:39;8.73;;;5.55;;
43297;SDS011;28892;55.640;37.532;2022-07-23T04:37:05;6.88;;;5.57;;
43297;SDS011;28892;55.640;37.532;2022-07-23T04:39:31;6.03;;;5.20;;
43297;SDS011;28892;55.640;37.532;2022-07-23T04:41:57;7.93;;;5.60;;
43297;SDS011;28892;55.640;37.532;2022-07-23T04:44:23;9.02;;;6.07;;
43297;SDS011;28892;55.640;37.532;2022-07-23T04:46:50;8.43;;;5.55;;
43297;SDS011;28892;55.640;37.532;2022-07-23T04:49:16;8.88;;;5.68;;
43297;SDS011;28892;55.640;37.532;2022-07-23T04:51:42;6.50;;;5.65;;
43297;SDS011;28892;55.640;37.532;2022-07-23T04:54:07;5.93;;;5.22;;
43297;SDS011;28892;55.640;37.532;2022-07-23T04:56:33;8.10;;;5.95;;
43297;SDS011;28892;55.640;37.532;2022-07-23T04:58:59;7.78;;;5.40;;
43297;SDS011;28892;55.640;37.532;2022-07-23T05:01:25;7.50;;;5.63;;
43297;SDS011;28892;55.640;37.532;2022-07-23T05:03:51;6.70;;;5.78;;
43297;SDS011;28892;55.640;37.532;2022-07-23T05:06:16;10.27;;;6.40;;
43297;SDS011;28892;55.640;37.532;2022-07-23T05:08:42;8.93;;;6.70;;
43297;SDS011;28892;55.640;37.532;2022-07-23T05:11:09;10.68;;;7.85;;
43297;SDS011;28892;55.640;37.532;2022-07-23T05:13:35;12.45;;;8.90;;
43297;SDS011;28892;55.640;37.532;2022-07-23T05:16:00;10.90;;;7.75;;
43297;SDS011;28892;55.640;37.532;2022-07-23T05:20:58;12.43;;;8.13;;
43297;SDS011;28892;55.640;37.532;2022-07-23T05:23:24;12.07;;;8.02;;
43297;SDS011;28892;55.640;37.532;2022-07-23T05:25:53;10.98;;;8.43;;
43297;SDS011;28892;55.640;37.532;2022-07-23T05:28:18;10.07;;;7.15;;
43297;SDS011;28892;55.640;37.532;2022-07-23T05:30:44;10.05;;;6.80;;
43297;SDS011;28892;55.640;37.532;2022-07-23T05:33:13;8.85;;;6.88;;
43297;SDS011;28892;55.640;37.532;2022-07-23T05:35:40;7.75;;;6.35;;
43297;SDS011;28892;55.640;37.532;2022-07-23T05:38:20;10.05;;;6.63;;
43297;SDS011;28892;55.640;37.532;2022-07-23T05:40:46;12.05;;;6.93;;
43297;SDS011;28892;55.640;37.532;2022-07-23T05:43:12;9.55;;;6.70;;
43297;SDS011;28892;55.640;37.532;2022-07-23T05:45:38;8.30;;;6.80;;
43297;SDS011;28892;55.640;37.532;2022-07-23T05:48:04;8.15;;;5.95;;
43297;SDS011;28892;55.640;37.532;2022-07-23T05:50:35;7.63;;;5.53;;
43297;SDS011;28892;55.640;37.532;2022-07-23T05:53:10;6.47;;;5.53;;
43297;SDS011;28892;55.640;37.532;2022-07-23T05:58:18;7.90;;;5.25;;
43297;SDS011;28892;55.640;37.532;2022-07-23T06:00:44;6.22;;;5.55;;
43297;SDS011;28892;55.640;37.532;2022-07-23T06:03:10;9.13;;;5.63;;
43297;SDS011;28892;55.640;37.532;2022-07-23T06:05:36;6.85;;;5.50;;
43297;SDS011;28892;55.640;37.532;2022-07-23T06:08:02;9.13;;;5.50;;
43297;SDS011;28892;55.640;37.532;2022-07-23T06:10:30;8.10;;;5.53;;
43297;SDS011;28892;55.640;37.532;2022-07-23T06:12:56;6.63;;;5.78;;
43297;SDS011;28892;55.640;37.532;2022-07-23T06:15:23;6.80;;;5.50;;
43297;SDS011;28892;55.640;37.532;2022-07-23T06:17:49;6.10;;;5.47;;
43297;SDS011;28892;55.640;37.532;2022-07-23T06:20:15;6.65;;;5.93;;
43297;SDS011;28892;55.640;37.532;2022-07-23T06:22:41;6.05;;;5.45;;
43297;SDS011;28892;55.640;37.532;2022-07-23T06:25:07;6.25;;;5.53;;
43297;SDS011;28892;55.640;37.532;2022-07-23T06:27:34;8.38;;;5.28;;
43297;SDS011;28892;55.640;37.532;2022-07-23T06:29:59;5.72;;;5.13;;
43297;SDS011;28892;55.640;37.532;2022-07-23T06:32:25;6.75;;;5.65;;
43297;SDS011;28892;55.640;37.532;2022-07-23T06:34:51;10.85;;;5.93;;
43297;SDS011;28892;55.640;37.532;2022-07-23T06:37:20;9.38;;;5.68;;
43297;SDS011;28892;55.640;37.532;2022-07-23T06:39:45;9.55;;;5.57;;
43297;SDS011;28892;55.640;37.532;2022-07-23T06:42:12;6.47;;;5.13;;
43297;SDS011;28892;55.640;37.532;2022-07-23T06:44:42;7.05;;;4.95;;
43297;SDS011;28892;55.640;37.532;2022-07-23T06:47:08;7.97;;;5.35;;
43297;SDS011;28892;55.640;37.532;2022-07-23T06:49:34;8.52;;;5.22;;
43297;SDS011;28892;55.640;37.532;2022-07-23T06:52:00;7.65;;;5.00;;
43297;SDS011;28892;55.640;37.532;2022-07-23T06:54:26;6.82;;;5.22;;
43297;SDS011;28892;55.640;37.532;2022-07-23T06:56:51;8.52;;;5.68;;
43297;SDS011;28892;55.640;37.532;2022-07-23T06:59:17;10.15;;;5.07;;
43297;SDS011;28892;55.640;37.532;2022-07-23T07:01:43;8.90;;;5.97;;
43297;SDS011;28892;55.640;37.532;2022-07-23T07:04:08;7.35;;;5.43;;
43297;SDS011;28892;55.640;37.532;2022-07-23T07:06:34;7.38;;;5.38;;
43297;SDS011;28892;55.640;37.532;2022-07-23T07:09:00;9.48;;;5.90;;
43297;SDS011;28892;55.640;37.532;2022-07-23T07:11:26;10.05;;;5.22;;
43297;SDS011;28892;55.640;37.532;2022-07-23T07:13:51;5.97;;;5.20;;
43297;SDS011;28892;55.640;37.532;2022-07-23T07:16:17;8.10;;;6.03;;
43297;SDS011;28892;55.640;37.532;2022-07-23T07:18:43;6.60;;;5.30;;
43297;SDS011;28892;55.640;37.532;2022-07-23T07:21:09;7.70;;;5.00;;
43297;SDS011;28892;55.640;37.532;2022-07-23T07:23:34;6.80;;;5.47;;
43297;SDS011;28892;55.640;37.532;2022-07-23T07:26:00;6.03;;;5.00;;
43297;SDS011;28892;55.640;37.532;2022-07-23T07:28:26;5.80;;;4.53;;
43297;SDS011;28892;55.640;37.532;2022-07-23T07:30:52;6.72;;;4.82;;
43297;SDS011;28892;55.640;37.532;2022-07-23T07:33:18;8.27;;;5.13;;
43297;SDS011;28892;55.640;37.532;2022-07-23T07:35:44;24.55;;;8.38;;
43297;SDS011;28892;55.640;37.532;2022-07-23T07:38:09;10.85;;;5.60;;
43297;SDS011;28892;55.640;37.532;2022-07-23T07:40:35;6.53;;;5.63;;
43297;SDS011;28892;55.640;37.532;2022-07-23T07:43:01;7.72;;;5.97;;
43297;SDS011;28892;55.640;37.532;2022-07-23T07:45:29;6.25;;;5.65;;
43297;SDS011;28892;55.640;37.532;2022-07-23T07:47:55;6.35;;;5.18;;
43297;SDS011;28892;55.640;37.532;2022-07-23T07:50:22;6.30;;;5.43;;
43297;SDS011;28892;55.640;37.532;2022-07-23T07:52:48;7.57;;;5.53;;
43297;SDS011;28892;55.640;37.532;2022-07-23T07:55:13;7.85;;;5.28;;
43297;SDS011;28892;55.640;37.532;2022-07-23T07:57:40;7.47;;;5.50;;
43297;SDS011;28892;55.640;37.532;2022-07-23T08:00:07;5.63;;;5.03;;
43297;SDS011;28892;55.640;37.532;2022-07-23T08:05:08;6.35;;;5.28;;
43297;SDS011;28892;55.640;37.532;2022-07-23T08:07:35;6.13;;;5.45;;
43297;SDS011;28892;55.640;37.532;2022-07-23T08:10:00;10.90;;;5.93;;
43297;SDS011;28892;55.640;37.532;2022-07-23T08:12:26;6.15;;;5.55;;
43297;SDS011;28892;55.640;37.532;2022-07-23T08:14:52;6.90;;;5.32;;
43297;SDS011;28892;55.640;37.532;2022-07-23T08:17:18;9.55;;;5.90;;
43297;SDS011;28892;55.640;37.532;2022-07-23T08:19:43;6.18;;;5.28;;
43297;SDS011;28892;55.640;37.532;2022-07-23T08:22:09;7.38;;;5.75;;
43297;SDS011;28892;55.640;37.532;2022-07-23T08:24:35;10.02;;;5.45;;
43297;SDS011;28892;55.640;37.532;2022-07-23T08:27:00;9.00;;;5.50;;
43297;SDS011;28892;55.640;37.532;2022-07-23T08:29:26;5.97;;;5.22;;
43297;SDS011;28892;55.640;37.532;2022-07-23T08:31:52;7.18;;;5.95;;
43297;SDS011;28892;55.640;37.532;2022-07-23T08:34:17;18.40;;;6.80;;
43297;SDS011;28892;55.640;37.532;2022-07-23T08:36:43;7.05;;;5.40;;
43297;SDS011;28892;55.640;37.532;2022-07-23T08:39:09;6.85;;;5.93;;
43297;SDS011;28892;55.640;37.532;2022-07-23T08:41:34;7.60;;;5.53;;
43297;SDS011;28892;55.640;37.532;2022-07-23T08:44:00;9.52;;;5.97;;
43297;SDS011;28892;55.640;37.532;2022-07-23T08:46:27;7.95;;;6.10;;
43297;SDS011;28892;55.640;37.532;2022-07-23T08:48:53;8.90;;;5.88;;
43297;SDS011;28892;55.640;37.532;2022-07-23T08:51:20;12.80;;;7.60;;
43297;SDS011;28892;55.640;37.532;2022-07-23T08:53:46;6.53;;;5.63;;
43297;SDS011;28892;55.640;37.532;2022-07-23T08:56:12;8.90;;;6.28;;
43297;SDS011;28892;55.640;37.532;2022-07-23T08:58:37;7.75;;;5.38;;
43297;SDS011;28892;55.640;37.532;2022-07-23T09:01:03;6.38;;;5.68;;
43297;SDS011;28892;55.640;37.532;2022-07-23T09:03:33;6.85;;;6.25;;
43297;SDS011;28892;55.640;37.532;2022-07-23T09:06:01;8.63;;;6.25;;
43297;SDS011;28892;55.640;37.532;2022-07-23T09:08:34;33.45;;;10.32;;
43297;SDS011;28892;55.640;37.532;2022-07-23T09:11:07;9.40;;;5.90;;
43297;SDS011;28892;55.640;37.532;2022-07-23T09:16:16;6.88;;;6.00;;
43297;SDS011;28892;55.640;37.532;2022-07-23T09:21:16;6.80;;;6.10;;
43297;SDS011;28892;55.640;37.532;2022-07-23T09:31:23;7.15;;;6.55;;
43297;SDS011;28892;55.640;37.532;2022-07-23T09:33:50;6.93;;;6.22;;
43297;SDS011;28892;55.640;37.532;2022-07-23T09:36:18;6.95;;;6.20;;
43297;SDS011;28892;55.640;37.532;2022-07-23T09:38:52;7.88;;;6.60;;
43297;SDS011;28892;55.640;37.532;2022-07-23T09:41:19;6.88;;;6.18;;
43297;SDS011;28892;55.640;37.532;2022-07-23T09:43:45;8.55;;;7.00;;
43297;SDS011;28892;55.640;37.532;2022-07-23T09:46:17;8.23;;;6.38;;
43297;SDS011;28892;55.640;37.532;2022-07-23T09:48:45;6.90;;;5.68;;
43297;SDS011;28892;55.640;37.532;2022-07-23T09:51:11;9.05;;;5.95;;
43297;SDS011;28892;55.640;37.532;2022-07-23T09:53:40;7.13;;;6.07;;
43297;SDS011;28892;55.640;37.532;2022-07-23T09:56:05;7.35;;;6.53;;
43297;SDS011;28892;55.640;37.532;2022-07-23T09:58:33;6.60;;;5.97;;
43297;SDS011;28892;55.640;37.532;2022-07-23T10:01:09;7.35;;;6.55;;
43297;SDS011;28892;55.640;37.532;2022-07-23T10:03:35;7.78;;;6.53;;
43297;SDS011;28892;55.640;37.532;2022-07-23T10:06:40;8.48;;;6.38;;
43297;SDS011;28892;55.640;37.532;2022-07-23T10:09:28;8.48;;;6.68;;
43297;SDS011;28892;55.640;37.532;2022-07-23T10:12:33;9.80;;;6.45;;
43297;SDS011;28892;55.640;37.532;2022-07-23T10:15:03;7.70;;;6.85;;
43297;SDS011;28892;55.640;37.532;2022-07-23T10:17:31;7.05;;;6.45;;
43297;SDS011;28892;55.640;37.532;2022-07-23T10:19:57;7.60;;;6.50;;
43297;SDS011;28892;55.640;37.532;2022-07-23T10:22:27;7.55;;;6.85;;
43297;SDS011;28892;55.640;37.532;2022-07-23T10:25:12;14.75;;;7.95;;
43297;SDS011;28892;55.640;37.532;2022-07-23T10:31:20;7.80;;;6.57;;
43297;SDS011;28892;55.640;37.532;2022-07-23T10:39:34;7.10;;;6.38;;
43297;SDS011;28892;55.640;37.532;2022-07-23T10:42:18;8.93;;;6.70;;
43297;SDS011;28892;55.640;37.532;2022-07-23T10:44:45;6.78;;;6.07;;
43297;SDS011;28892;55.640;37.532;2022-07-23T10:47:13;7.43;;;6.50;;
43297;SDS011;28892;55.640;37.532;2022-07-23T10:50:29;7.30;;;6.60;;
43297;SDS011;28892;55.640;37.532;2022-07-23T10:58:04;7.65;;;6.85;;
43297;SDS011;28892;55.640;37.532;2022-07-23T11:00:31;8.73;;;7.93;;
43297;SDS011;28892;55.640;37.532;2022-07-23T11:02:59;8.50;;;7.13;;
43297;SDS011;28892;55.640;37.532;2022-07-23T11:05:40;10.55;;;8.50;;
43297;SDS011;28892;55.640;37.532;2022-07-23T11:19:12;7.70;;;7.10;;
43297;SDS011;28892;55.640;37.532;2022-07-23T11:24:08;7.18;;;6.47;;
43297;SDS011;28892;55.640;37.532;2022-07-23T11:32:02;8.02;;;7.22;;
43297;SDS011;28892;55.640;37.532;2022-07-23T11:34:40;8.30;;;7.50;;
43297;SDS011;28892;55.640;37.532;2022-07-23T11:37:08;7.78;;;6.97;;
43297;SDS011;28892;55.640;37.532;2022-07-23T11:39:35;7.85;;;7.15;;
43297;SDS011;28892;55.640;37.532;2022-07-23T11:42:03;7.25;;;6.55;;
43297;SDS011;28892;55.640;37.532;2022-07-23T11:44:32;8.52;;;6.78;;
43297;SDS011;28892;55.640;37.532;2022-07-23T11:47:01;7.93;;;6.93;;
43297;SDS011;28892;55.640;37.532;2022-07-23T11:49:29;7.20;;;6.60;;
43297;SDS011;28892;55.640;37.532;2022-07-23T11:52:29;8.38;;;7.50;;
43297;SDS011;28892;55.640;37.532;2022-07-23T11:54:50;7.97;;;7.28;;
43297;SDS011;28892;55.640;37.532;2022-07-23T11:57:18;7.97;;;7.15;;
43297;SDS011;28892;55.640;37.532;2022-07-23T11:59:46;7.13;;;6.43;;
43297;SDS011;28892;55.640;37.532;2022-07-23T12:02:14;7.50;;;6.80;;
43297;SDS011;28892;55.640;37.532;2022-07-23T12:04:44;8.50;;;6.63;;
43297;SDS011;28892;55.640;37.532;2022-07-23T12:12:43;7.38;;;6.65;;
43297;SDS011;28892;55.640;37.532;2022-07-23T12:15:22;7.90;;;7.10;;
43297;SDS011;28892;55.640;37.532;2022-07-23T12:17:50;7.20;;;6.53;;
43297;SDS011;28892;55.640;37.532;2022-07-23T12:20:21;7.82;;;6.80;;
43297;SDS011;28892;55.640;37.532;2022-07-23T12:22:51;8.13;;;7.32;;
43297;SDS011;28892;55.640;37.532;2022-07-23T12:25:19;48.53;;;9.95;;
43297;SDS011;28892;55.640;37.532;2022-07-23T12:27:57;15.23;;;7.18;;
43297;SDS011;28892;55.640;37.532;2022-07-23T12:30:27;34.20;;;8.75;;
43297;SDS011;28892;55.640;37.532;2022-07-23T12:32:56;10.30;;;6.50;;
43297;SDS011;28892;55.640;37.532;2022-07-23T12:35:29;8.10;;;6.53;;
43297;SDS011;28892;55.640;37.532;2022-07-23T12:38:01;10.13;;;7.32;;
43297;SDS011;28892;55.640;37.532;2022-07-23T12:45:45;7.93;;;7.18;;
43297;SDS011;28892;55.640;37.532;2022-07-23T12:48:15;22.88;;;8.77;;
43297;SDS011;28892;55.640;37.532;2022-07-23T12:53:16;7.15;;;6.38;;
43297;SDS011;28892;55.640;37.532;2022-07-23T12:55:45;9.77;;;7.03;;
43297;SDS011;28892;55.640;37.532;2022-07-23T12:58:12;9.65;;;7.00;;
43297;SDS011;28892;55.640;37.532;2022-07-23T13:03:23;8.30;;;6.07;;
43297;SDS011;28892;55.640;37.532;2022-07-23T13:05:53;8.15;;;6.20;;
43297;SDS011;28892;55.640;37.532;2022-07-23T13:08:20;8.35;;;6.40;;
43297;SDS011;28892;55.640;37.532;2022-07-23T13:10:46;8.32;;;6.35;;
43297;SDS011;28892;55.640;37.532;2022-07-23T13:13:14;8.13;;;6.60;;
43297;SDS011;28892;55.640;37.532;2022-07-23T13:15:41;7.63;;;6.93;;
43297;SDS011;28892;55.640;37.532;2022-07-23T13:18:08;7.82;;;6.70;;
43297;SDS011;28892;55.640;37.532;2022-07-23T13:20:34;7.38;;;6.63;;
43297;SDS011;28892;55.640;37.532;2022-07-23T13:23:00;7.25;;;6.55;;
43297;SDS011;28892;55.640;37.532;2022-07-23T13:25:26;7.00;;;6.30;;
43297;SDS011;28892;55.640;37.532;2022-07-23T13:27:52;13.25;;;8.63;;
43297;SDS011;28892;55.640;37.532;2022-07-23T13:30:18;12.57;;;10.60;;
43297;SDS011;28892;55.640;37.532;2022-07-23T13:32:43;40.80;;;9.38;;
43297;SDS011;28892;55.640;37.532;2022-07-23T13:35:09;17.00;;;8.77;;
43297;SDS011;28892;55.640;37.532;2022-07-23T13:37:37;8.98;;;6.82;;
43297;SDS011;28892;55.640;37.532;2022-07-23T13:40:03;9.10;;;7.15;;
43297;SDS011;28892;55.640;37.532;2022-07-23T13:42:29;9.15;;;6.70;;
43297;SDS011;28892;55.640;37.532;2022-07-23T13:44:55;7.88;;;6.30;;
43297;SDS011;28892;55.640;37.532;2022-07-23T13:47:21;8.35;;;6.40;;
43297;SDS011;28892;55.640;37.532;2022-07-23T13:49:47;8.77;;;7.15;;
43297;SDS011;28892;55.640;37.532;2022-07-23T13:52:12;9.00;;;6.82;;
43297;SDS011;28892;55.640;37.532;2022-07-23T13:54:38;8.07;;;7.15;;
43297;SDS011;28892;55.640;37.532;2022-07-23T13:57:04;7.30;;;6.65;;
43297;SDS011;28892;55.640;37.532;2022-07-23T13:59:30;7.22;;;6.50;;
43297;SDS011;28892;55.640;37.532;2022-07-23T14:01:55;7.18;;;6.47;;
43297;SDS011;28892;55.640;37.532;2022-07-23T14:04:21;7.28;;;6.10;;
43297;SDS011;28892;55.640;37.532;2022-07-23T14:06:47;8.00;;;6.57;;
43297;SDS011;28892;55.640;37.532;2022-07-23T14:09:13;7.88;;;7.07;;
43297;SDS011;28892;55.640;37.532;2022-07-23T14:11:38;11.85;;;6.65;;
43297;SDS011;28892;55.640;37.532;2022-07-23T14:14:04;8.13;;;6.95;;
43297;SDS011;28892;55.640;37.532;2022-07-23T14:16:33;9.13;;;8.23;;
43297;SDS011;28892;55.640;37.532;2022-07-23T14:18:59;6.90;;;6.20;;
43297;SDS011;28892;55.640;37.532;2022-07-23T14:21:28;7.57;;;6.57;;
43297;SDS011;28892;55.640;37.532;2022-07-23T14:23:53;7.70;;;6.50;;
43297;SDS011;28892;55.640;37.532;2022-07-23T14:26:19;7.00;;;6.13;;
43297;SDS011;28892;55.640;37.532;2022-07-23T14:29:03;7.55;;;6.45;;
43297;SDS011;28892;55.640;37.532;2022-07-23T14:31:29;6.95;;;6.30;;
43297;SDS011;28892;55.640;37.532;2022-07-23T14:33:54;6.75;;;6.10;;
43297;SDS011;28892;55.640;37.532;2022-07-23T14:36:20;7.32;;;6.60;;
43297;SDS011;28892;55.640;37.532;2022-07-23T14:38:46;6.53;;;5.93;;
43297;SDS011;28892;55.640;37.532;2022-07-23T14:41:12;8.52;;;7.00;;
43297;SDS011;28892;55.640;37.532;2022-07-23T14:43:37;6.32;;;5.72;;
43297;SDS011;28892;55.640;37.532;2022-07-23T14:46:03;7.15;;;6.55;;
43297;SDS011;28892;55.640;37.532;2022-07-23T14:48:29;7.35;;;5.88;;
43297;SDS011;28892;55.640;37.532;2022-07-23T14:50:54;7.85;;;6.10;;
43297;SDS011;28892;55.640;37.532;2022-07-23T14:53:20;7.20;;;6.43;;
43297;SDS011;28892;55.640;37.532;2022-07-23T14:55:46;6.47;;;5.88;;
43297;SDS011;28892;55.640;37.532;2022-07-23T14:58:11;7.03;;;6.35;;
43297;SDS011;28892;55.640;37.532;2022-07-23T15:00:37;6.78;;;6.13;;
43297;SDS011;28892;55.640;37.532;2022-07-23T15:03:03;6.43;;;5.75;;
43297;SDS011;28892;55.640;37.532;2022-07-23T15:05:28;6.90;;;6.20;;
43297;SDS011;28892;55.640;37.532;2022-07-23T15:07:55;8.55;;;6.25;;
43297;SDS011;28892;55.640;37.532;2022-07-23T15:10:21;6.47;;;5.75;;
43297;SDS011;28892;55.640;37.532;2022-07-23T15:12:47;6.63;;;6.03;;
43297;SDS011;28892;55.640;37.532;2022-07-23T15:15:13;6.68;;;6.05;;
43297;SDS011;28892;55.640;37.532;2022-07-23T15:17:39;7.50;;;6.75;;
43297;SDS011;28892;55.640;37.532;2022-07-23T15:20:05;6.55;;;5.95;;
43297;SDS011;28892;55.640;37.532;2022-07-23T15:22:31;7.03;;;5.97;;
43297;SDS011;28892;55.640;37.532;2022-07-23T15:24:57;9.32;;;6.22;;
43297;SDS011;28892;55.640;37.532;2022-07-23T15:27:23;8.20;;;6.47;;
43297;SDS011;28892;55.640;37.532;2022-07-23T15:29:49;6.93;;;6.10;;
43297;SDS011;28892;55.640;37.532;2022-07-23T15:32:14;6.72;;;6.13;;
43297;SDS011;28892;55.640;37.532;2022-07-23T15:34:40;6.32;;;5.72;;
43297;SDS011;28892;55.640;37.532;2022-07-23T15:37:06;6.57;;;5.82;;
43297;SDS011;28892;55.640;37.532;2022-07-23T15:39:32;8.77;;;5.97;;
43297;SDS011;28892;55.640;37.532;2022-07-23T15:42:01;7.35;;;6.57;;
43297;SDS011;28892;55.640;37.532;2022-07-23T15:44:28;6.70;;;5.88;;